Latest Coastal Weather Observations for Hobart

IDT60701

Issued at 4:52 am EST Thursday 3 September 2026 (issued every 10 minutes, with the page automatically refreshed every 10 minutes)

About coastal observations | Map of coastal stations | Coastal observations for TAS | Marine services | Other Formats
Station Details ID: 094029 Name: HOBART (ELLERSLIE ROAD) Lat: -42.89 Lon: 147.33 Height: 50.5 m
Data from the previous 72 hours. | See also: Recent months at Hobart
Date/Time
EST
Wind Sea
Height
m
Swell Vis
km
Cloud Weather Temp
°C
Press
MSL
hPa
Rain since
9am
mm
Dir  Spd
kts
Gust
kts
Height
m
Period
s
Dir
03/04:30am NW 23 37 - - - - - - - 14.2 991.8 0.0
03/04:00am NW 20 33 - - - - - - - 14.2 992.0 0.0
03/03:38am NW 15 26 - - - - - - - 13.9 992.5 0.0
03/03:30am NW 13 24 - - - - - - - 13.5 992.6 0.0
03/03:25am NW 16 24 - - - - - - - 13.6 992.9 0.0
03/03:00am NW 18 33 - - - - - - - 14.1 993.8 0.0
03/02:52am NW 15 25 - - - - - - - 13.7 994.3 0.0
03/02:30am NNW 10 19 - - - - - - - 13.6 994.4 0.0
03/02:25am NNW 10 19 - - - - - - - 13.7 994.6 0.0
03/02:12am NW 15 26 - - - - - - - 13.9 995.1 0.0
03/02:00am NNW 9 19 - - - - - - - 13.5 995.4 0.0
03/01:30am NNW 9 17 - - - - - - - 13.2 996.0 0.0
03/01:00am N 7 13 - - - - - - - 13.3 996.5 0.0
03/12:30am NNW 11 18 - - - - - - - 13.7 997.0 0.0
03/12:00am NNW 8 16 - - - - - - - 13.7 997.5 0.0
 
Date/Time
EST
Wind Sea
Height
m
Swell Vis
km
Cloud Weather Temp
°C
Press
MSL
hPa
Rain since
9am
mm
Dir  Spd
kts
Gust
kts
Height
m
Period
s
Dir
02/11:30pm NNW 12 18 - - - - - - - 13.8 998.1 0.0
02/11:00pm NNW 16 23 - - - - - - - 13.8 998.6 0.0
02/10:30pm NNW 12 22 - - - - - - - 13.7 999.1 0.0
02/10:00pm NNW 9 15 - - - - - - - 13.3 999.6 0.0
02/09:30pm NNW 12 18 - - - - - - - 13.2 1000.0 0.0
02/09:00pm NNW 11 18 - - - - - - - 13.2 1000.4 0.0
02/08:30pm N 10 15 - - - - - - - 13.2 1000.9 0.0
02/08:00pm NW 11 19 - - - - - - - 13.4 1001.2 0.0
02/07:30pm NNW 14 20 - - - - - - - 13.5 1001.5 0.0
02/07:00pm NW 11 17 - - - - - - - 13.5 1001.4 0.0
02/06:30pm NW 10 18 - - - - - - - 13.7 1001.6 0.0
02/06:00pm NW 13 22 - - - - - - - 13.8 1001.7 0.0
02/05:59pm NW 13 22 - - - - - - - 13.8 1001.7 0.0
02/05:40pm NW 15 25 - - - - - - - 14.1 1001.8 0.0
02/05:38pm NW 13 23 - - - - - - - 14.1 1001.8 0.0
02/05:30pm NW 13 20 - - - - - - - 14.1 1001.8 0.0
02/05:19pm NW 15 27 - - - - - - - 14.3 1001.9 0.0
02/05:08pm NW 14 22 - - - - - - - 14.5 1001.8 0.0
02/05:00pm NW 15 21 - - - - - - - 14.5 1001.8 0.0
02/04:30pm NW 16 26 - - - - - - - 14.6 1001.7 0.0
02/04:24pm NW 15 26 - - - - - - - 14.6 1001.9 0.0
02/04:12pm NW 13 20 - - - - - - - 14.8 1001.9 0.0
02/04:00pm NW 17 29 - - - - - - - 14.9 1001.9 0.0
02/03:49pm NW 16 29 - - - - - - - 15.4 1001.9 0.0
02/03:30pm NW 16 24 - - - - - - - 16.1 1002.0 0.0
02/03:23pm NW 16 24 - - - - - - - 16.0 1001.9 0.0
02/03:00pm NNW 14 26 - - - - - - - 16.9 1001.8 0.0
02/02:43pm NNW 15 26 - - - - - - - 16.5 1001.7 0.0
02/02:39pm NNW 12 19 - - - - - - - 16.6 1001.8 0.0
02/02:30pm NNW 14 26 - - - - - - - 15.7 1001.8 0.0
02/02:00pm NNW 15 25 - - - - - - - 15.3 1001.9 0.0
02/01:49pm NNW 15 29 - - - - - - - 15.2 1002.0 0.0
02/01:47pm NNW 14 29 - - - - - - - 15.2 1002.0 0.0
02/01:33pm NNW 15 25 - - - - - - - 15.2 1002.3 0.0
02/01:30pm NNW 15 24 - - - - - - - 15.2 1002.4 0.0
02/01:09pm NNW 15 24 - - - - - - - 15.5 1002.6 0.0
02/01:00pm NNW 15 23 - - - - - - - 15.5 1002.8 0.0
02/12:30pm NNW 15 26 - - - - - - - 15.0 1003.3 0.0
02/12:28pm NNW 15 26 - - - - - - - 15.1 1003.3 0.0
02/12:13pm NNW 15 23 - - - - - - - 14.7 1003.6 0.0
02/12:00pm NNW 18 28 - - - - - - - 14.7 1003.7 0.0
02/11:30am NNW 18 26 - - - - - - - 15.4 1003.9 0.0
02/11:00am NNW 20 36 - - - - - - - 14.4 1004.0 0.0
02/10:41am NNW 17 27 - - - - - - - 14.6 1004.2 0.0
02/10:30am NNW 17 25 - - - - - - - 14.2 1004.3 0.0
02/10:04am NNW 17 23 - - - - - - - 13.7 1004.6 0.0
02/10:00am NNW 16 24 - - - - - - - 13.8 1004.7 0.0
02/09:52am NNW 17 27 - - - - - - - 13.6 1004.8 0.0
02/09:30am NNW 15 21 - - - - - - - 13.6 1005.1 0.0
02/09:00am NNW 13 22 - - - - - - - 13.4 1005.6 -
02/08:30am NNW 11 17 - - - - - - - 11.9 1005.4 -
02/08:00am N 8 14 - - - - - - - 11.3 1005.6 -
02/07:30am N 10 17 - - - - - - - 10.5 1005.5 -
02/07:00am NNW 11 17 - - - - - - - 9.9 1005.6 -
02/06:30am NNW 13 19 - - - - - - - 9.8 1004.9 -
02/06:00am NNW 14 22 - - - - - - - 10.1 1004.8 -
02/05:30am NNW 13 18 - - - - - - - 10.1 1004.7 -
02/05:13am NW 14 21 - - - - - - - 10.1 1004.7 -
02/05:00am NW 15 26 - - - - - - - 10.1 1004.7 -
02/04:56am NNW 16 26 - - - - - - - 10.2 1004.6 -
02/04:30am NNW 13 18 - - - - - - - 10.4 1004.5 -
02/04:00am NNW 14 22 - - - - - - - 10.5 1004.5 -
02/03:30am NW 12 18 - - - - - - - 10.3 1004.4 -
02/03:00am NW 16 23 - - - - - - - 10.4 1004.0 -
02/02:30am NW 14 24 - - - - - - - 10.7 1003.9 -
02/02:22am NW 14 20 - - - - - - - 10.7 1004.1 -
02/02:03am NW 15 26 - - - - - - - 10.9 1004.0 -
02/02:00am NW 15 22 - - - - - - - 10.9 1004.0 -
02/12:00am NW 11 21 - - - - - - - 13.6 1003.6 0.0
 
Date/Time
EST
Wind Sea
Height
m
Swell Vis
km
Cloud Weather Temp
°C
Press
MSL
hPa
Rain since
9am
mm
Dir  Spd
kts
Gust
kts
Height
m
Period
s
Dir
01/11:30pm NW 13 31 - - - - - - - 14.3 1003.1 0.0
01/11:00pm NW 10 17 - - - - - - - 15.0 1003.0 0.0
01/10:30pm W 3 9 - - - - - - - 14.7 1002.8 0.0
01/10:00pm NNW 9 14 - - - - - - - 14.7 1002.6 0.0
01/09:30pm NNW 10 16 - - - - - - - 14.5 1002.3 0.0
01/09:00pm NNW 12 16 - - - - - - - 14.4 1002.0 0.0
01/08:30pm NNW 13 21 - - - - - - - 14.7 1001.6 0.0
01/08:19pm NW 13 24 - - - - - - - 14.7 1001.6 0.0
01/08:00pm NW 15 26 - - - - - - - 14.8 1001.0 0.0
01/07:30pm NW 18 31 - - - - - - - 15.0 1000.2 0.0
01/07:00pm NW 20 31 - - - - - - - 14.9 1000.1 0.0
01/06:30pm NW 18 30 - - - - - - - 14.8 1000.5 0.0
01/06:00pm NW 20 33 - - - - - - - 15.8 1001.3 0.0
01/05:30pm NW 21 33 - - - - - - - 16.3 1001.0 0.0
01/05:20pm NW 19 33 - - - - - - - 16.4 1001.1 0.0
01/05:00pm NW 17 28 - - - - - - - 16.6 1001.1 0.0
01/04:30pm NW 24 37 - - - - - - - 17.3 1000.8 0.0
01/04:00pm NW 23 39 - - - - - - - 17.8 1000.7 0.0
01/03:58pm NW 25 39 - - - - - - - 17.8 1000.6 0.0
01/03:48pm NW 21 39 - - - - - - - 18.5 1000.5 0.0
01/03:30pm NW 18 29 - - - - - - - 18.5 1000.7 0.0
01/03:00pm NW 21 37 - - - - - - - 18.1 1001.3 0.0
01/02:50pm NW 23 36 - - - - - - - 18.3 1001.5 0.0
01/02:40pm NW 24 40 - - - - - - - 18.5 1001.8 0.0
01/02:30pm NW 18 30 - - - - - - - 19.0 1002.3 0.0
01/02:00pm NW 17 29 - - - - - - - 19.4 1003.3 0.0
01/01:49pm NW 16 26 - - - - - - - 19.4 1003.5 0.0
01/01:48pm NNW 16 24 - - - - - - - 19.4 1003.6 0.0
01/01:30pm NW 18 29 - - - - - - - 18.8 1004.4 0.0
01/01:03pm NW 15 28 - - - - - - - 18.7 1005.0 0.0
01/01:00pm NW 14 25 - - - - - - - 18.9 1005.2 0.0
01/12:39pm NNW 13 21 - - - - - - - 18.9 1005.8 0.0
01/12:30pm NNW 18 28 - - - - - - - 18.5 1005.9 0.0
01/12:11pm NW 15 27 - - - - - - - 18.6 1006.5 0.0
01/12:00pm NNW 11 20 - - - - - - - 18.5 1006.9 0.0
01/11:30am N 8 12 - - - - - - - 17.1 1007.8 0.0
01/11:00am N 6 9 - - - - - - - 16.8 1008.8 0.0
01/10:30am N 7 11 - - - - - - - 15.7 1009.6 0.0
01/10:00am N 9 13 - - - - - - - 14.6 1010.1 0.0
01/09:30am N 11 16 - - - - - - - 13.6 1010.6 0.0
01/09:00am N 15 22 - - - - - - - 12.8 1011.0 -
01/08:30am N 15 20 - - - - - - - 12.0 1011.4 -
01/08:00am N 14 20 - - - - - - - 11.2 1012.0 -
01/07:30am N 11 16 - - - - - - - 10.0 1012.4 -
01/07:00am NNW 7 10 - - - - - - - 8.4 1012.9 -
01/06:30am N 9 12 - - - - - - - 8.4 1013.2 -
01/06:00am NNW 9 12 - - - - - - - 8.0 1013.6 -
01/05:30am NNW 9 11 - - - - - - - 7.8 1014.1 -
01/05:00am NW 9 12 - - - - - - - 8.1 1014.7 -
01/04:30am NNW 13 17 - - - - - - - 8.5 1015.1 -
01/04:00am NNW 13 16 - - - - - - - 9.4 1015.6 -
01/03:30am NNW 13 17 - - - - - - - 9.4 1016.3 -
01/03:00am NNW 13 17 - - - - - - - 10.2 1016.6 0.0
01/02:30am NNW 17 22 - - - - - - - 12.2 1017.2 -
01/02:00am NNW 16 21 - - - - - - - 11.3 1018.0 -
01/01:30am NNW 17 23 - - - - - - - 12.0 1018.2 -
01/01:00am NW 17 24 - - - - - - - 12.9 1018.5 -
01/12:30am NNW 14 19 - - - - - - - 12.6 1018.9 -
01/12:00am N 9 12 - - - - - - - 10.4 1019.6 -
 
Date/Time
EST
Wind Sea
Height
m
Swell Vis
km
Cloud Weather Temp
°C
Press
MSL
hPa
Rain since
9am
mm
Dir  Spd
kts
Gust
kts
Height
m
Period
s
Dir
31/11:30pm N 9 14 - - - - - - - 10.7 1020.0 -
31/11:00pm NNW 8 14 - - - - - - - 11.0 1020.6 -
31/10:30pm SW 4 7 - - - - - - - 10.2 1020.9 -
31/10:00pm SW 4 6 - - - - - - - 10.8 1021.3 -
31/09:30pm N 2 4 - - - - - - - 11.1 1021.4 -
31/09:00pm NNE 4 6 - - - - - - - 10.9 1021.5 0.0
31/08:30pm WNW 5 6 - - - - - - - 11.3 1021.8 -
31/08:00pm WSW 7 9 - - - - - - - 11.8 1022.0 -
31/07:30pm W 4 6 - - - - - - - 12.3 1022.1 -
31/07:00pm WSW 6 9 - - - - - - - 13.5 1022.0 -
31/06:30pm WSW 7 10 - - - - - - - 13.7 1022.0 -
31/06:00pm W 6 8 - - - - - - - 14.3 1022.0 -
31/05:30pm ESE 3 5 - - - - - - - 16.5 1022.0 -
31/05:00pm S 4 6 - - - - - - - 17.0 1022.2 -
31/04:30pm WNW 8 12 - - - - - - - 17.8 1022.3 -
31/04:00pm NW 11 15 - - - - - - - 18.5 1022.3 -
31/03:30pm NNW 12 16 - - - - - - - 18.5 1022.5 -
31/03:00pm NNW 14 22 - - - - - - - 18.9 1022.7 -
31/02:30pm N 10 16 - - - - - - - 19.5 1022.8 -
31/02:00pm NNW 14 22 - - - - - - - 18.8 1022.9 -
31/12:30pm NE 12 19 - - - - - - - 18.1 1023.9 0.0
31/12:00pm NNE 8 11 - - - - - - - 17.8 1024.6 0.0
31/11:30am NNW 7 10 - - - - - - - 17.5 1025.4 0.0
31/11:00am NNW 7 12 - - - - - - - 15.9 1025.6 0.0
31/10:30am N 9 13 - - - - - - - 15.5 1025.9 0.0
31/10:00am N 9 13 - - - - - - - 13.8 1026.0 0.0
31/09:30am N 8 12 - - - - - - - 13.5 1026.3 0.0
31/09:00am S 3 5 - - - - - - - 11.5 1026.5 0.0
31/08:30am WSW 5 8 - - - - - - - 10.1 1026.6 0.0
31/08:00am WSW 5 10 - - - - - - - 9.1 1026.5 0.0
31/07:30am NNE 7 11 - - - - - - - 10.3 1025.9 0.0
31/07:00am NNW 7 11 - - - - - - - 8.7 1025.6 0.0
31/06:30am N 7 11 - - - - - - - 10.0 1025.5 0.0
31/06:00am NE 6 13 - - - - - - - 9.9 1025.2 0.0
31/05:30am NNE 6 11 - - - - - - - 10.2 1025.0 0.0
31/05:00am SW 5 9 - - - - - - - 10.2 1024.9 0.0

Other formats

Comma delimited format used in spreadsheet applications
http://www.bom.gov.au/fwo/IDT60701/IDT60701.94970.axf

JavaScript Object Notation format (JSON) in row-major order
http://www.bom.gov.au/fwo/IDT60701/IDT60701.94970.json

Data quality

Most of these data are generated automatically and are frequently updated. Quality checks on data are not normally performed. It is possible for incorrect values to appear. Refer to information at About Latest Weather Observations and please check the disclaimer before using these data.